createdAt,value
2018-10-05T00:00:32.314Z,8.14
2018-10-05T00:03:01.403Z,8.09
2018-10-05T00:05:30.536Z,8.05
2018-10-05T00:07:59.726Z,8.01
2018-10-05T00:10:28.823Z,7.98
2018-10-05T00:12:57.943Z,7.94
2018-10-05T00:15:27.146Z,7.91
2018-10-05T00:17:56.241Z,7.88
2018-10-05T00:20:25.390Z,7.87
2018-10-05T00:22:54.479Z,7.82
2018-10-05T00:25:23.747Z,7.80
2018-10-05T00:27:53.015Z,7.81
2018-10-05T00:30:22.120Z,7.79
2018-10-05T00:32:51.209Z,7.75
2018-10-05T00:35:20.532Z,7.75
2018-10-05T00:37:50.224Z,7.75
2018-10-05T03:22:27.754Z,6.26
2018-10-05T03:24:56.866Z,6.25
2018-10-05T03:27:26.594Z,6.25
2018-10-05T03:29:55.696Z,6.23
2018-10-05T03:32:24.797Z,6.19
2018-10-05T03:34:53.906Z,6.18
2018-10-05T03:37:23.774Z,6.16
2018-10-05T03:39:53.282Z,6.13
2018-10-05T08:03:53.235Z,9.68
2018-10-05T08:06:22.722Z,9.81
2018-10-05T08:08:52.316Z,9.93
2018-10-05T08:11:27.894Z,10.04
2018-10-05T08:13:57.262Z,10.15
2018-10-05T08:16:26.305Z,10.27
2018-10-05T08:18:56.247Z,10.40
2018-10-05T08:21:26.366Z,10.54
2018-10-05T08:23:56.242Z,10.69
2018-10-05T08:26:26.349Z,10.83
2018-10-05T08:28:56.682Z,10.90
2018-10-05T08:31:26.424Z,11.00
2018-10-05T08:33:56.337Z,11.11
2018-10-05T08:36:26.354Z,11.18
2018-10-05T08:38:56.322Z,11.25
2018-10-05T08:41:26.437Z,11.32
2018-10-05T08:43:56.424Z,11.42
2018-10-05T08:46:26.364Z,11.50
2018-10-05T08:48:56.473Z,11.53
2018-10-05T08:51:25.589Z,11.63
2018-10-05T08:53:54.738Z,11.71
2018-10-05T08:56:23.786Z,11.85
2018-10-05T08:58:52.877Z,11.97
2018-10-05T09:01:22.043Z,12.06
2018-10-05T09:03:51.104Z,12.14
2018-10-05T09:06:20.219Z,12.22
2018-10-05T09:08:49.425Z,12.34
2018-10-05T09:11:18.663Z,12.48
2018-10-05T09:13:47.671Z,12.66
2018-10-05T09:16:16.796Z,12.73
2018-10-05T09:18:45.862Z,12.79
2018-10-05T09:21:14.933Z,12.91
2018-10-05T09:23:44.011Z,12.97
2018-10-05T09:26:13.076Z,13.04
2018-10-05T09:28:42.178Z,13.10
2018-10-05T09:31:11.286Z,13.00
2018-10-05T09:33:40.344Z,13.27
2018-10-05T09:36:09.461Z,13.37
2018-10-05T09:38:38.525Z,13.43
2018-10-05T09:41:08.013Z,13.49
2018-10-05T09:43:37.092Z,13.60
2018-10-05T09:46:06.197Z,13.70
2018-10-05T09:48:35.262Z,13.74
2018-10-05T09:51:04.321Z,13.79
2018-10-05T09:53:33.417Z,13.85
2018-10-05T09:56:02.880Z,13.90
2018-10-05T09:58:32.122Z,13.97
2018-10-05T10:01:06.726Z,14.07
2018-10-05T10:03:36.910Z,14.12
2018-10-05T10:06:06.738Z,14.19
2018-10-05T10:08:35.763Z,14.26
2018-10-05T10:11:04.890Z,14.38
2018-10-05T10:13:33.980Z,14.49
2018-10-05T10:16:03.089Z,14.55
2018-10-05T10:18:32.184Z,14.62
2018-10-05T10:21:01.311Z,14.74
2018-10-05T10:23:30.371Z,14.78
2018-10-05T10:25:59.414Z,14.86
2018-10-05T10:28:28.620Z,14.90
2018-10-05T10:30:58.118Z,14.95
2018-10-05T10:33:28.219Z,14.98
2018-10-05T10:35:57.837Z,15.08
2018-10-05T10:38:26.897Z,15.15
2018-10-05T10:40:55.967Z,15.25
2018-10-05T10:43:25.025Z,15.34
2018-10-05T10:45:54.075Z,15.43
2018-10-05T10:48:23.114Z,15.52
2018-10-05T10:50:52.185Z,15.59
2018-10-05T10:53:21.370Z,15.62
2018-10-05T10:55:50.490Z,15.66
2018-10-05T10:58:19.590Z,15.69
2018-10-05T11:00:48.769Z,15.72
2018-10-05T11:03:17.750Z,15.81
2018-10-05T11:05:46.850Z,15.88
2018-10-05T11:08:15.933Z,15.91
2018-10-05T11:10:45.054Z,15.96
2018-10-05T11:13:14.266Z,15.98
2018-10-05T11:15:43.333Z,16.00
2018-10-05T11:18:12.422Z,16.19
2018-10-05T11:20:41.598Z,16.32
2018-10-05T11:23:10.724Z,16.39
2018-10-05T11:25:39.885Z,16.43
2018-10-05T11:28:09.005Z,16.42
2018-10-05T11:30:38.233Z,16.50
2018-10-05T11:33:07.356Z,16.51
2018-10-05T11:35:36.416Z,16.59
2018-10-05T11:38:05.574Z,16.71
2018-10-05T11:40:34.714Z,16.80
2018-10-05T11:43:03.823Z,16.85
2018-10-05T11:45:32.943Z,16.93
2018-10-05T11:48:02.064Z,17.00
2018-10-05T11:50:31.200Z,17.06
2018-10-05T11:53:00.298Z,17.13
2018-10-05T11:55:29.406Z,17.19
2018-10-05T11:57:59.134Z,17.19
2018-10-05T12:00:29.341Z,17.21
2018-10-05T12:02:59.158Z,17.27
2018-10-05T12:05:29.262Z,17.28
2018-10-05T12:07:59.245Z,17.38
2018-10-05T12:10:29.144Z,17.43
2018-10-05T12:12:59.169Z,17.52
2018-10-05T12:15:29.380Z,17.60
2018-10-05T12:17:59.263Z,17.74
2018-10-05T12:20:29.250Z,17.78
2018-10-05T12:22:59.252Z,17.87
2018-10-05T12:25:29.430Z,17.84
2018-10-05T12:27:59.345Z,17.84
2018-10-05T12:30:29.442Z,17.80
2018-10-05T12:32:59.364Z,17.82
2018-10-05T12:35:29.557Z,17.87
2018-10-05T12:37:59.405Z,17.91
2018-10-05T12:40:29.483Z,17.92
2018-10-05T12:42:59.594Z,17.99
2018-10-05T12:45:28.737Z,18.02
2018-10-05T12:47:57.849Z,18.07
2018-10-05T12:50:26.966Z,18.14
2018-10-05T12:52:56.070Z,18.22
2018-10-05T12:55:25.165Z,18.27
2018-10-05T12:57:54.292Z,18.31
2018-10-05T13:00:23.394Z,18.38
2018-10-05T13:02:52.556Z,18.38
2018-10-05T13:05:21.714Z,18.40
2018-10-05T13:07:50.887Z,18.44
2018-10-05T13:10:19.991Z,18.50
2018-10-05T13:12:49.216Z,18.54
2018-10-05T13:15:18.263Z,18.54
2018-10-05T13:17:47.395Z,18.53
2018-10-05T13:20:16.580Z,18.57
2018-10-05T13:22:45.727Z,18.59
2018-10-05T13:25:14.806Z,18.63
2018-10-05T13:27:43.884Z,18.70
2018-10-05T13:30:12.978Z,18.81
2018-10-05T13:32:42.114Z,18.86
2018-10-05T13:35:11.214Z,18.88
2018-10-05T13:37:40.293Z,18.94
2018-10-05T13:40:09.395Z,19.02
2018-10-05T13:42:38.466Z,19.16
2018-10-05T13:45:07.643Z,19.19
2018-10-05T13:47:36.731Z,19.12
2018-10-05T13:50:06.782Z,19.18
2018-10-05T13:52:35.903Z,19.22
2018-10-05T13:55:05.035Z,19.24
2018-10-05T13:57:34.126Z,19.30
2018-10-05T14:00:03.438Z,19.36
2018-10-05T14:02:32.716Z,19.42
2018-10-05T14:05:01.753Z,19.46
2018-10-05T14:07:30.995Z,19.51
2018-10-05T14:10:00.182Z,19.58
2018-10-05T14:12:29.287Z,19.65
2018-10-05T14:14:58.405Z,19.73
2018-10-05T14:17:27.559Z,19.82
2018-10-05T14:19:56.696Z,19.89
2018-10-05T14:22:25.972Z,19.99
2018-10-05T14:24:55.026Z,20.10
2018-10-05T14:27:24.210Z,20.18
2018-10-05T14:29:53.292Z,20.34
2018-10-05T14:32:22.353Z,20.63
2018-10-05T14:34:51.444Z,20.87
2018-10-05T14:37:20.532Z,21.07
2018-10-05T14:39:49.636Z,21.30
2018-10-05T14:42:18.725Z,21.52
2018-10-05T14:44:47.827Z,21.79
2018-10-05T14:47:16.949Z,22.01
2018-10-05T14:49:46.088Z,22.01
2018-10-05T14:52:19.371Z,22.38
2018-10-05T14:54:48.501Z,22.52
2018-10-05T14:57:17.628Z,22.60
2018-10-05T14:59:46.711Z,22.58
2018-10-05T15:02:15.852Z,22.45
2018-10-05T15:04:45.006Z,22.28
2018-10-05T15:07:14.303Z,21.99
2018-10-05T15:09:43.456Z,21.78
2018-10-05T15:12:12.659Z,21.57
2018-10-05T15:14:41.790Z,21.40
2018-10-05T15:17:10.959Z,21.02
2018-10-05T15:19:40.033Z,20.72
2018-10-05T15:22:09.196Z,20.43
2018-10-05T15:24:38.343Z,20.14
2018-10-05T15:27:08.042Z,19.94
2018-10-05T15:29:37.156Z,19.73
2018-10-05T15:32:06.332Z,19.55
2018-10-05T15:34:35.509Z,19.40
2018-10-05T15:37:05.027Z,19.30
2018-10-05T15:39:34.133Z,19.24
2018-10-05T15:42:03.261Z,19.16
2018-10-05T15:44:32.954Z,19.09
2018-10-05T15:47:06.169Z,18.98
2018-10-05T15:49:35.671Z,18.88
2018-10-05T15:52:04.853Z,18.81
2018-10-05T15:54:33.933Z,18.75
2018-10-05T15:57:03.133Z,18.66
2018-10-05T15:59:34.080Z,18.54
2018-10-05T16:02:03.781Z,18.47
2018-10-05T16:04:33.065Z,18.34
2018-10-05T16:07:03.026Z,18.23
2018-10-05T16:09:33.109Z,18.13
2018-10-05T16:12:03.188Z,18.05
2018-10-05T16:14:33.080Z,17.99
2018-10-05T16:17:03.097Z,17.97
2018-10-05T16:19:33.209Z,17.90
2018-10-05T16:22:03.386Z,17.79
2018-10-05T16:24:35.414Z,17.70
2018-10-05T16:27:04.537Z,17.57
2018-10-05T16:29:33.667Z,17.49
2018-10-05T16:32:03.706Z,17.38
2018-10-05T16:34:34.131Z,17.28
2018-10-05T16:37:03.813Z,17.18
2018-10-05T16:39:33.752Z,17.07
2018-10-05T16:42:03.578Z,16.95
2018-10-05T16:44:33.713Z,16.91
2018-10-05T16:47:03.611Z,16.85
2018-10-05T16:49:33.605Z,16.76
2018-10-05T16:52:03.572Z,16.65
2018-10-05T16:54:33.649Z,16.55
2018-10-05T16:57:03.721Z,16.46
2018-10-05T16:59:33.744Z,16.37
2018-10-05T17:02:03.884Z,16.29
2018-10-05T17:04:33.738Z,16.23
2018-10-05T17:07:04.797Z,16.15
2018-10-05T17:09:33.909Z,16.05
2018-10-05T17:12:03.924Z,15.93
2018-10-05T17:14:33.829Z,15.85
2018-10-05T17:17:03.839Z,15.76
2018-10-05T17:19:33.854Z,15.71
2018-10-05T17:22:04.130Z,15.61
2018-10-05T17:24:34.014Z,15.53
2018-10-05T17:27:03.985Z,15.47
2018-10-05T17:29:33.948Z,15.40
2018-10-05T17:32:04.244Z,15.33
2018-10-05T17:34:34.052Z,15.30
2018-10-05T17:37:04.230Z,15.26
2018-10-05T17:39:33.985Z,15.18
2018-10-05T17:42:04.174Z,15.11
2018-10-05T17:44:34.164Z,15.01
2018-10-05T17:47:04.110Z,14.90
2018-10-05T17:49:34.115Z,14.79
2018-10-05T17:52:04.268Z,14.71
2018-10-05T17:54:34.238Z,14.56
2018-10-05T17:57:04.237Z,14.47
2018-10-05T17:59:34.443Z,14.37
2018-10-05T18:02:04.533Z,14.27
2018-10-05T18:04:34.185Z,14.18
2018-10-05T18:07:04.337Z,14.09
2018-10-05T18:09:34.273Z,14.00
2018-10-05T18:12:04.567Z,13.85
2018-10-05T18:14:34.374Z,13.81
2018-10-05T18:17:04.362Z,13.73
2018-10-05T18:24:38.290Z,13.50
2018-10-05T18:27:07.520Z,13.44
2018-10-05T18:29:37.013Z,13.39
2018-10-05T18:32:06.499Z,13.34
2018-10-05T18:34:35.878Z,13.28
2018-10-05T18:37:05.377Z,13.24
2018-10-05T18:39:35.258Z,13.18
2018-10-05T18:42:04.828Z,13.15
2018-10-05T18:44:35.364Z,13.11
2018-10-05T18:47:05.011Z,13.11
2018-10-05T18:49:36.280Z,13.07
2018-10-05T18:52:05.789Z,13.04
2018-10-05T18:54:35.474Z,13.01
2018-10-05T18:57:16.743Z,12.98
2018-10-05T18:59:46.312Z,12.92
2018-10-05T19:02:18.703Z,12.89
2018-10-05T19:04:48.685Z,12.83
2018-10-05T19:07:18.184Z,12.77
2018-10-05T19:09:47.828Z,12.70
2018-10-05T19:12:17.262Z,12.65
2018-10-05T19:14:46.768Z,12.60
2018-10-05T19:17:18.344Z,12.59
2018-10-05T19:19:47.890Z,12.57
2018-10-05T19:22:18.282Z,12.53
2018-10-05T19:24:47.944Z,12.51
2018-10-05T19:27:18.218Z,12.47
2018-10-05T19:29:47.780Z,12.41
2018-10-05T19:32:17.503Z,12.35
2018-10-05T19:34:46.989Z,12.28
2018-10-05T19:37:16.814Z,12.25
2018-10-05T19:39:46.339Z,12.20
2018-10-05T19:42:15.844Z,12.16
2018-10-05T19:44:45.478Z,12.08
2018-10-05T19:47:15.081Z,12.00
2018-10-05T19:49:46.696Z,11.92
2018-10-05T19:52:16.425Z,11.86
2018-10-05T19:54:45.974Z,11.81
2018-10-05T19:57:15.630Z,11.76
2018-10-05T19:59:45.126Z,11.69
2018-10-05T20:02:14.655Z,11.64
2018-10-05T20:04:44.195Z,11.58
2018-10-05T20:07:13.785Z,11.54
2018-10-05T20:09:43.341Z,11.48
2018-10-05T20:12:13.237Z,11.46
2018-10-05T20:14:42.659Z,11.43
2018-10-05T20:17:14.150Z,11.39
2018-10-05T20:19:43.654Z,11.37
2018-10-05T20:22:12.999Z,11.34
2018-10-05T20:24:42.488Z,11.29
2018-10-05T20:27:12.103Z,11.27
2018-10-05T20:29:41.433Z,11.19
2018-10-05T20:32:10.904Z,11.14
2018-10-05T20:34:40.144Z,11.11
2018-10-05T20:37:09.525Z,11.06
2018-10-05T20:39:38.817Z,11.02
2018-10-05T20:42:08.088Z,10.98
2018-10-05T20:44:37.364Z,10.91
2018-10-05T20:47:06.573Z,10.87
2018-10-05T20:49:35.935Z,10.83
2018-10-05T20:52:05.803Z,10.78
2018-10-05T21:51:56.890Z,10.26
2018-10-05T21:54:26.405Z,10.25
2018-10-05T21:56:57.173Z,10.24
2018-10-05T21:59:26.740Z,10.23
2018-10-05T22:01:55.888Z,10.22
2018-10-05T22:04:25.390Z,10.22
2018-10-05T22:06:54.494Z,10.22
2018-10-05T22:09:23.879Z,10.20
2018-10-05T22:11:53.039Z,10.17
2018-10-05T22:14:40.489Z,10.15
2018-10-05T22:17:09.726Z,10.14
2018-10-05T22:19:38.865Z,10.10
2018-10-05T22:22:07.926Z,10.04
2018-10-05T22:24:39.348Z,9.95
2018-10-05T22:27:08.441Z,9.86
2018-10-05T22:29:37.620Z,9.77
2018-10-05T22:32:07.004Z,9.72
2018-10-05T22:34:36.978Z,9.61
2018-10-05T22:37:06.609Z,9.56
2018-10-05T22:39:36.608Z,9.52
2018-10-05T22:42:07.739Z,9.47
2018-10-05T22:44:36.825Z,9.38
2018-10-05T22:47:06.693Z,9.28
2018-10-05T22:54:48.819Z,9.22
2018-10-05T22:57:17.889Z,9.20
2018-10-05T22:59:47.006Z,9.18
2018-10-05T23:02:16.128Z,9.18
2018-10-05T23:04:45.228Z,9.15
2018-10-05T23:07:14.321Z,9.12
2018-10-05T23:09:43.436Z,9.10
2018-10-05T23:12:12.505Z,9.10
2018-10-05T23:14:41.574Z,9.08
2018-10-05T23:17:10.781Z,9.06
2018-10-05T23:19:39.846Z,9.04
2018-10-05T23:22:08.914Z,9.00
2018-10-05T23:24:38.014Z,9.01
2018-10-05T23:27:07.228Z,9.02
2018-10-05T23:34:42.484Z,9.04
2018-10-05T23:37:13.734Z,9.04
2018-10-05T23:39:42.853Z,9.05
2018-10-05T23:42:11.953Z,9.06
2018-10-05T23:44:41.159Z,9.06
2018-10-05T23:47:10.233Z,9.06
2018-10-05T23:49:39.312Z,9.05
2018-10-05T23:52:25.389Z,9.05
2018-10-05T23:54:56.397Z,9.04
2018-10-05T23:57:25.946Z,9.04
2018-10-05T23:59:55.025Z,9.03
